New Laguna, New Mexico
Current Conditions -  °F | °C
As of 3:16 PM on Thursday 23 Oct 2014 (Local Time) from KGNT Reporting Station
Clear Clear  
Wind Chill: 73°   Ceiling: Unl
Heat Index: 73°   Visibility: 10mi
Dew Point: 27°   Wind: 12mph
Humidity: 18%   Direction: 340°NNW
Pressure: 30.28"   Gusts: NA
Location:  35.04°N, 107.42°W
Report Text: KGNT 232116Z AUTO 34010KT 10SM CLR 23/M03 A3028 RMK AO2
Loading
Personal Weather Stations






























Interactive Weather Map
Tropical Storm Tracking
New forecast layout! Learn more

10-Day Weather Forecast

Advertisements
Track Severe Weather on mobile